createdAt,value
2019-03-11T00:00:36.432Z,2.20
2019-03-11T00:03:05.437Z,1.55
2019-03-11T00:05:34.298Z,1.80
2019-03-11T00:08:03.769Z,1.57
2019-03-11T00:10:32.686Z,1.70
2019-03-11T00:13:01.563Z,1.50
2019-03-11T00:15:30.350Z,1.75
2019-03-11T00:17:59.262Z,1.70
2019-03-11T00:20:31.206Z,1.73
2019-03-11T00:23:00.331Z,1.80
2019-03-11T00:25:29.095Z,1.70
2019-03-11T00:27:58.259Z,1.90
2019-03-11T00:30:27.021Z,1.80
2019-03-11T00:32:55.859Z,1.98
2019-03-11T00:35:24.643Z,2.08
2019-03-11T00:37:53.414Z,1.82
2019-03-11T00:40:22.202Z,1.72
2019-03-11T00:42:51.007Z,1.85
2019-03-11T00:45:19.958Z,1.70
2019-03-11T00:47:48.726Z,2.10
2019-03-11T00:50:17.637Z,2.00
2019-03-11T00:52:46.513Z,2.05
2019-03-11T00:55:15.682Z,2.08
2019-03-11T00:57:44.772Z,2.17
2019-03-11T01:00:20.803Z,2.37
2019-03-11T01:02:49.610Z,2.37
2019-03-11T01:05:19.502Z,2.30
2019-03-11T01:07:48.258Z,2.12
2019-03-11T01:10:17.222Z,2.52
2019-03-11T01:12:46.087Z,2.40
2019-03-11T01:15:14.994Z,2.60
2019-03-11T01:17:43.863Z,2.50
2019-03-11T01:20:12.712Z,2.83
2019-03-11T01:22:41.570Z,2.60
2019-03-11T01:25:10.557Z,2.90
2019-03-11T01:27:39.476Z,2.72
2019-03-11T01:30:08.878Z,2.70
2019-03-11T01:32:37.716Z,2.70
2019-03-11T01:35:06.670Z,2.83
2019-03-11T01:37:35.551Z,2.75
2019-03-11T01:40:04.670Z,2.75
2019-03-11T01:42:33.598Z,2.83
2019-03-11T01:45:02.659Z,3.00
2019-03-11T01:47:31.431Z,2.50
2019-03-11T01:50:00.368Z,2.77
2019-03-11T01:52:29.178Z,2.40
2019-03-11T01:54:58.002Z,2.60
2019-03-11T01:57:26.779Z,3.08
2019-03-11T01:59:56.034Z,2.52
2019-03-11T02:02:24.895Z,2.70
2019-03-11T02:04:53.686Z,2.70
2019-03-11T02:07:22.606Z,2.47
2019-03-11T02:09:51.646Z,2.70
2019-03-11T02:12:20.502Z,2.20
2019-03-11T02:14:49.271Z,2.27
2019-03-11T02:17:18.083Z,2.57
2019-03-11T02:19:46.952Z,2.70
2019-03-11T02:22:15.991Z,2.87
2019-03-11T02:24:44.842Z,2.47
2019-03-11T02:27:13.601Z,2.58
2019-03-11T02:29:42.430Z,2.40
2019-03-11T02:32:11.247Z,2.65
2019-03-11T02:34:40.101Z,2.33
2019-03-11T02:37:08.970Z,2.65
2019-03-11T02:39:37.784Z,2.92
2019-03-11T02:42:06.610Z,2.65
2019-03-11T02:44:38.771Z,2.67
2019-03-11T02:47:07.663Z,2.60
2019-03-11T02:49:36.722Z,2.40
2019-03-11T02:52:06.780Z,2.70
2019-03-11T02:54:35.837Z,2.30
2019-03-11T02:57:04.664Z,3.10
2019-03-11T02:59:33.789Z,3.10
2019-03-11T03:02:30.703Z,2.85
2019-03-11T03:05:21.836Z,2.65
2019-03-11T03:07:50.724Z,2.95
2019-03-11T03:10:19.596Z,3.10
2019-03-11T03:12:54.547Z,2.83
2019-03-11T03:15:23.311Z,2.77
2019-03-11T03:17:52.141Z,3.00
2019-03-11T03:20:20.958Z,2.67
2019-03-11T03:22:49.738Z,2.90
2019-03-11T03:25:33.147Z,2.83
2019-03-11T03:27:49.527Z,2.72
2019-03-11T03:30:18.897Z,2.60
2019-03-11T03:32:47.769Z,2.77
2019-03-11T03:35:16.722Z,2.60
2019-03-11T03:37:45.579Z,2.55
2019-03-11T03:40:15.111Z,2.70
2019-03-11T03:42:44.075Z,2.72
2019-03-11T03:45:25.251Z,2.60
2019-03-11T03:47:54.207Z,2.75
2019-03-11T03:50:23.192Z,2.67
2019-03-11T03:52:52.060Z,2.87
2019-03-11T03:55:20.949Z,2.33
2019-03-11T03:57:50.091Z,2.80
2019-03-11T04:00:19.003Z,3.00
2019-03-11T04:02:47.870Z,3.05
2019-03-11T04:05:16.726Z,3.12
2019-03-11T04:07:45.595Z,3.00
2019-03-11T04:10:15.538Z,3.20
2019-03-11T04:12:44.454Z,2.60
2019-03-11T04:15:13.547Z,2.98
2019-03-11T04:17:42.990Z,2.72
2019-03-11T04:20:13.810Z,3.08
2019-03-11T04:22:42.927Z,2.92
2019-03-11T04:25:12.455Z,2.90
2019-03-11T04:27:41.517Z,3.30
2019-03-11T04:30:16.400Z,2.98
2019-03-11T04:32:45.371Z,2.80
2019-03-11T04:35:14.323Z,2.80
2019-03-11T04:37:43.185Z,2.95
2019-03-11T04:40:13.011Z,3.00
2019-03-11T04:42:41.955Z,3.30
2019-03-11T04:45:11.939Z,3.12
2019-03-11T04:47:40.854Z,2.85
2019-03-11T04:50:11.556Z,3.17
2019-03-11T04:52:40.452Z,3.10
2019-03-11T04:55:10.574Z,2.65
2019-03-11T04:57:48.110Z,2.98
2019-03-11T05:00:19.189Z,3.08
2019-03-11T05:02:48.403Z,3.15
2019-03-11T05:05:17.634Z,3.00
2019-03-11T05:07:46.696Z,2.92
2019-03-11T05:10:16.501Z,2.77
2019-03-11T05:12:45.718Z,2.90
2019-03-11T05:15:15.171Z,3.10
2019-03-11T05:17:44.090Z,3.15
2019-03-11T05:20:13.342Z,2.72
2019-03-11T05:22:42.258Z,3.00
2019-03-11T05:25:11.378Z,3.42
2019-03-11T05:27:40.324Z,3.08
2019-03-11T05:30:12.825Z,3.08
2019-03-11T05:32:42.181Z,3.10
2019-03-11T05:35:11.139Z,3.10
2019-03-11T05:37:40.073Z,3.35
2019-03-11T05:40:10.119Z,3.20
2019-03-11T05:42:39.002Z,2.95
2019-03-11T05:45:09.559Z,3.23
2019-03-11T05:47:38.495Z,3.10
2019-03-11T05:50:08.345Z,3.20
2019-03-11T05:52:37.143Z,3.10
2019-03-11T05:55:06.736Z,3.35
2019-03-11T05:57:35.538Z,3.30
2019-03-11T06:00:05.755Z,3.10
2019-03-11T06:02:36.471Z,3.00
2019-03-11T06:05:05.290Z,2.98
2019-03-11T06:07:34.112Z,2.75
2019-03-11T06:10:03.067Z,3.08
2019-03-11T06:12:31.891Z,3.37
2019-03-11T06:15:00.663Z,3.17
2019-03-11T06:17:29.478Z,3.17
2019-03-11T06:20:17.399Z,3.45
2019-03-11T06:22:46.217Z,3.55
2019-03-11T06:25:15.073Z,3.15
2019-03-11T06:27:43.887Z,3.30
2019-03-11T06:30:12.917Z,3.50
2019-03-11T06:32:41.694Z,3.08
2019-03-11T06:35:15.735Z,3.30
2019-03-11T06:37:44.597Z,3.60
2019-03-11T06:40:13.991Z,3.25
2019-03-11T06:42:42.847Z,3.52
2019-03-11T06:45:11.807Z,4.22
2019-03-11T06:47:40.610Z,3.30
2019-03-11T06:50:09.573Z,3.72
2019-03-11T06:52:38.433Z,3.47
2019-03-11T06:55:07.402Z,3.30
2019-03-11T06:57:44.387Z,2.83
2019-03-11T07:00:14.466Z,3.10
2019-03-11T07:02:43.251Z,2.92
2019-03-11T07:05:20.067Z,3.15
2019-03-11T07:07:52.086Z,3.00
2019-03-11T07:10:20.978Z,2.62
2019-03-11T07:12:49.773Z,2.80
2019-03-11T07:15:18.755Z,2.70
2019-03-11T07:17:47.579Z,2.72
2019-03-11T07:20:16.513Z,2.47
2019-03-11T07:22:45.389Z,2.60
2019-03-11T07:25:14.367Z,2.50
2019-03-11T07:27:43.292Z,2.50
2019-03-11T07:30:12.542Z,2.70
2019-03-11T07:32:41.963Z,2.60
2019-03-11T07:35:10.892Z,2.37
2019-03-11T07:37:39.759Z,2.08
2019-03-11T07:40:08.850Z,2.50
2019-03-11T07:42:37.610Z,2.33
2019-03-11T07:45:06.614Z,2.20
2019-03-11T07:47:35.471Z,2.50
2019-03-11T07:50:04.918Z,1.90
2019-03-11T07:52:35.916Z,1.50
2019-03-11T07:55:05.203Z,1.20
2019-03-11T07:57:33.983Z,1.40
2019-03-11T08:00:02.865Z,1.40
2019-03-11T08:02:31.643Z,1.10
2019-03-11T08:05:00.434Z,1.50
2019-03-11T08:07:29.260Z,1.30
2019-03-11T08:09:58.183Z,1.30
2019-03-11T08:12:27.344Z,1.40
2019-03-11T08:14:56.193Z,1.45
2019-03-11T08:17:24.983Z,1.52
2019-03-11T08:19:53.751Z,1.40
2019-03-11T08:22:22.946Z,1.60
2019-03-11T08:24:51.734Z,1.52
2019-03-11T08:27:20.556Z,1.67
2019-03-11T08:29:49.457Z,1.60
2019-03-11T08:32:18.234Z,1.40
2019-03-11T08:34:47.006Z,1.47
2019-03-11T08:37:15.774Z,1.30
2019-03-11T08:39:44.608Z,1.30
2019-03-11T08:42:15.422Z,1.45
2019-03-11T08:44:44.190Z,1.47
2019-03-11T08:47:13.083Z,1.45
2019-03-11T08:49:42.722Z,1.35
2019-03-11T08:52:11.547Z,1.20
2019-03-11T08:54:40.323Z,1.30
2019-03-11T08:57:09.118Z,1.17
2019-03-11T08:59:37.939Z,0.93
2019-03-11T09:02:06.865Z,0.90
2019-03-11T09:04:35.722Z,1.12
2019-03-11T09:07:04.579Z,0.80
2019-03-11T09:09:33.941Z,0.80
2019-03-11T09:12:02.873Z,0.90
2019-03-11T09:14:31.650Z,1.02
2019-03-11T09:17:00.766Z,0.93
2019-03-11T09:19:29.670Z,1.15
2019-03-11T09:21:58.518Z,1.20
2019-03-11T09:24:46.550Z,1.00
2019-03-11T09:27:15.507Z,0.98
2019-03-11T09:29:44.295Z,1.55
2019-03-11T09:32:13.102Z,1.12
2019-03-11T09:34:41.923Z,1.30
2019-03-11T09:37:10.894Z,1.35
2019-03-11T09:39:39.774Z,1.02
2019-03-11T09:42:08.542Z,1.20
2019-03-11T09:44:37.363Z,1.27
2019-03-11T09:47:06.209Z,1.30
2019-03-11T09:49:35.023Z,1.10
2019-03-11T09:52:03.883Z,1.40
2019-03-11T09:54:33.122Z,1.40
2019-03-11T09:57:01.897Z,1.30
2019-03-11T09:59:31.026Z,1.47
2019-03-11T10:01:59.831Z,1.47
2019-03-11T10:04:28.611Z,1.75
2019-03-11T10:06:57.435Z,1.30
2019-03-11T10:09:26.210Z,1.50
2019-03-11T10:11:55.051Z,1.42
2019-03-11T10:14:23.894Z,1.62
2019-03-11T10:16:52.758Z,1.45
2019-03-11T10:19:21.531Z,1.60
2019-03-11T10:21:50.390Z,1.57
2019-03-11T10:24:19.142Z,1.65
2019-03-11T10:26:48.036Z,1.67
2019-03-11T10:29:16.787Z,1.77
2019-03-11T10:31:45.526Z,1.70
2019-03-11T10:34:14.302Z,1.80
2019-03-11T10:36:43.156Z,1.50
2019-03-11T10:39:12.114Z,1.60
2019-03-11T10:42:00.160Z,1.70
2019-03-11T10:44:29.047Z,1.30
2019-03-11T10:46:58.265Z,1.60
2019-03-11T10:49:27.079Z,1.25
2019-03-11T10:51:56.566Z,1.50
2019-03-11T10:54:25.465Z,1.70
2019-03-11T10:56:54.312Z,1.55
2019-03-11T10:59:23.111Z,1.50
2019-03-11T11:01:51.879Z,1.50
2019-03-11T11:04:20.722Z,1.50
2019-03-11T11:06:49.542Z,1.72
2019-03-11T11:09:18.323Z,1.55
2019-03-11T11:11:47.111Z,1.50
2019-03-11T11:14:15.964Z,1.77
2019-03-11T11:16:46.515Z,1.42
2019-03-11T11:19:16.599Z,1.52
2019-03-11T11:21:45.470Z,1.40
2019-03-11T11:24:14.568Z,1.47
2019-03-11T11:26:43.409Z,1.70
2019-03-11T11:29:12.346Z,1.30
2019-03-11T11:31:41.455Z,1.50
2019-03-11T11:34:10.275Z,1.72
2019-03-11T11:36:39.055Z,1.50
2019-03-11T11:39:08.380Z,1.42
2019-03-11T11:41:37.385Z,1.42
2019-03-11T11:44:06.675Z,1.52
2019-03-11T11:46:35.645Z,1.30
2019-03-11T11:49:04.583Z,1.57
2019-03-11T11:51:33.447Z,1.40
2019-03-11T11:54:02.267Z,1.63
2019-03-11T11:56:31.138Z,1.60
2019-03-11T11:59:00.014Z,1.50
2019-03-11T12:01:28.967Z,1.60
2019-03-11T12:03:57.844Z,1.62
2019-03-11T12:06:26.759Z,1.30
2019-03-11T12:08:55.536Z,1.40
2019-03-11T12:11:24.350Z,1.40
2019-03-11T12:13:53.203Z,1.50
2019-03-11T12:16:22.079Z,1.50
2019-03-11T12:18:50.927Z,1.40
2019-03-11T12:21:19.714Z,1.47
2019-03-11T12:23:48.548Z,1.52
2019-03-11T12:26:23.670Z,1.40
2019-03-11T12:28:52.457Z,1.42
2019-03-11T12:31:21.645Z,1.37
2019-03-11T12:33:50.865Z,1.40
2019-03-11T12:36:19.910Z,1.47
2019-03-11T12:38:48.798Z,1.30
2019-03-11T12:41:17.772Z,1.35
2019-03-11T12:43:46.597Z,1.25
2019-03-11T12:46:15.427Z,1.20
2019-03-11T12:48:44.230Z,1.32
2019-03-11T12:51:13.071Z,1.43
2019-03-11T12:53:41.946Z,1.30
2019-03-11T12:56:10.874Z,1.30
2019-03-11T12:58:41.807Z,1.30
2019-03-11T13:01:10.503Z,1.30
2019-03-11T13:03:39.462Z,1.42
2019-03-11T13:06:08.515Z,1.45
2019-03-11T13:08:37.405Z,1.52
2019-03-11T13:11:06.315Z,1.45
2019-03-11T13:13:35.215Z,1.50
2019-03-11T13:16:04.225Z,1.40
2019-03-11T13:18:41.330Z,1.63
2019-03-11T13:21:13.898Z,1.70
2019-03-11T13:23:42.751Z,1.80
2019-03-11T13:26:11.803Z,1.40
2019-03-11T13:28:40.640Z,1.40
2019-03-11T13:31:09.433Z,1.40
2019-03-11T13:33:38.376Z,1.60
2019-03-11T13:36:08.215Z,1.62
2019-03-11T13:38:37.620Z,1.70
2019-03-11T13:41:06.414Z,1.75
2019-03-11T13:43:35.461Z,1.60
2019-03-11T13:46:04.306Z,1.40
2019-03-11T13:48:33.233Z,1.77
2019-03-11T13:51:02.169Z,1.67
2019-03-11T13:53:37.127Z,1.50
2019-03-11T13:56:06.237Z,1.20
2019-03-11T13:58:35.120Z,1.40
2019-03-11T14:01:04.336Z,1.50
2019-03-11T14:03:33.484Z,1.55
2019-03-11T14:06:02.290Z,1.17
2019-03-11T14:08:31.193Z,1.40
2019-03-11T14:11:00.376Z,1.20
2019-03-11T14:13:29.226Z,1.57
2019-03-11T14:15:58.150Z,1.20
2019-03-11T14:18:27.039Z,1.30
2019-03-11T14:20:55.878Z,1.33
2019-03-11T14:23:25.157Z,1.12
2019-03-11T14:25:54.074Z,1.30
2019-03-11T14:28:23.046Z,1.57
2019-03-11T14:30:52.334Z,1.30
2019-03-11T14:33:21.329Z,1.45
2019-03-11T14:35:52.127Z,1.57
2019-03-11T14:38:20.812Z,1.60
2019-03-11T14:40:49.758Z,1.55
2019-03-11T14:43:18.541Z,1.70
2019-03-11T14:45:47.453Z,1.50
2019-03-11T14:48:16.451Z,1.65
2019-03-11T14:50:45.307Z,1.80
2019-03-11T14:53:14.163Z,1.57
2019-03-11T14:55:42.948Z,1.55
2019-03-11T14:58:11.818Z,1.67
2019-03-11T15:00:40.663Z,1.52
2019-03-11T15:03:09.523Z,1.65
2019-03-11T15:05:38.423Z,1.82
2019-03-11T15:08:07.382Z,1.50
2019-03-11T15:10:36.242Z,1.50
2019-03-11T15:13:05.106Z,1.50
2019-03-11T15:15:34.099Z,1.70
2019-03-11T15:18:03.130Z,1.72
2019-03-11T15:20:31.945Z,1.77
2019-03-11T15:23:06.186Z,1.50
2019-03-11T15:25:31.945Z,1.70
2019-03-11T15:28:00.899Z,1.60
2019-03-11T15:30:29.871Z,1.62
2019-03-11T15:32:58.743Z,1.63
2019-03-11T15:35:27.626Z,1.60
2019-03-11T15:37:56.372Z,2.17
2019-03-11T15:40:25.260Z,1.77
2019-03-11T15:42:54.202Z,1.60
2019-03-11T15:45:23.116Z,1.47
2019-03-11T15:47:51.900Z,1.40
2019-03-11T15:50:23.302Z,1.60
2019-03-11T15:52:52.143Z,1.50
2019-03-11T15:55:21.102Z,1.57
2019-03-11T15:57:49.931Z,1.60
2019-03-11T16:00:19.686Z,1.62
2019-03-11T16:02:48.655Z,1.80
2019-03-11T16:05:18.662Z,1.85
2019-03-11T16:07:47.496Z,1.80
2019-03-11T16:10:19.391Z,1.90
2019-03-11T16:12:48.422Z,1.92
2019-03-11T16:15:18.920Z,1.87
2019-03-11T16:17:47.840Z,1.90
2019-03-11T16:20:17.714Z,1.70
2019-03-11T16:22:46.913Z,2.30
2019-03-11T16:25:15.815Z,1.60
2019-03-11T16:27:44.728Z,1.80
2019-03-11T16:30:18.542Z,1.80
2019-03-11T16:32:58.322Z,1.60
2019-03-11T16:35:19.891Z,1.70
2019-03-11T16:37:48.839Z,1.47
2019-03-11T16:40:17.779Z,1.57
2019-03-11T16:42:46.650Z,1.90
2019-03-11T16:45:16.946Z,1.70
2019-03-11T16:47:45.902Z,1.70
2019-03-11T16:50:15.672Z,1.50
2019-03-11T16:52:44.588Z,1.62
2019-03-11T16:55:14.975Z,1.60
2019-03-11T16:57:43.931Z,1.70
2019-03-11T17:00:18.722Z,1.70
2019-03-11T17:02:47.918Z,1.55
2019-03-11T17:05:16.968Z,1.80
2019-03-11T17:07:45.819Z,1.65
2019-03-11T17:10:15.193Z,1.72
2019-03-11T17:12:44.098Z,1.80
2019-03-11T17:15:13.449Z,1.67
2019-03-11T17:17:42.333Z,1.60
2019-03-11T17:20:12.011Z,1.85
2019-03-11T17:22:43.174Z,1.77
2019-03-11T17:25:12.927Z,1.98
2019-03-11T17:27:41.863Z,1.82
2019-03-11T17:30:13.091Z,1.80
2019-03-11T17:32:42.390Z,1.80
2019-03-11T17:35:14.669Z,2.00
2019-03-11T17:37:43.814Z,1.90
2019-03-11T17:40:13.914Z,1.90
2019-03-11T17:42:42.757Z,1.80
2019-03-11T17:45:13.434Z,1.80
2019-03-11T17:47:42.417Z,1.95
2019-03-11T17:50:12.586Z,2.07
2019-03-11T17:52:41.555Z,2.13
2019-03-11T17:55:10.545Z,2.10
2019-03-11T17:57:39.486Z,1.95
2019-03-11T18:00:13.527Z,2.10
2019-03-11T18:02:42.684Z,2.08
2019-03-11T18:05:11.566Z,1.95
2019-03-11T18:07:40.723Z,1.82
2019-03-11T18:10:10.438Z,1.90
2019-03-11T18:12:39.318Z,2.22
2019-03-11T18:15:08.412Z,1.90
2019-03-11T18:17:37.561Z,1.90
2019-03-11T18:20:08.443Z,2.07
2019-03-11T18:22:37.395Z,2.17
2019-03-11T18:25:06.474Z,2.10
2019-03-11T18:27:35.516Z,2.02
2019-03-11T18:30:04.756Z,2.12
2019-03-11T18:32:33.790Z,2.12
2019-03-11T18:35:02.786Z,2.50
2019-03-11T18:37:31.775Z,2.60
2019-03-11T18:40:00.702Z,2.20
2019-03-11T18:42:29.715Z,2.33
2019-03-11T18:44:58.616Z,1.90
2019-03-11T18:47:27.567Z,1.80
2019-03-11T18:49:56.763Z,1.80
2019-03-11T18:52:25.577Z,2.00
2019-03-11T18:54:54.414Z,1.90
2019-03-11T18:57:24.297Z,2.10
2019-03-11T18:59:53.106Z,2.10
2019-03-11T19:02:22.171Z,2.00
2019-03-11T19:04:51.190Z,1.90
2019-03-11T19:07:20.139Z,1.90
2019-03-11T19:09:49.469Z,2.08
2019-03-11T19:12:18.609Z,1.98
2019-03-11T19:14:53.484Z,2.22
2019-03-11T19:17:22.641Z,2.20
2019-03-11T19:19:51.642Z,2.25
2019-03-11T19:22:20.478Z,2.05
2019-03-11T19:24:49.455Z,2.00
2019-03-11T19:27:18.660Z,1.75
2019-03-11T19:29:48.184Z,2.20
2019-03-11T19:32:17.185Z,2.08
2019-03-11T19:34:46.472Z,2.20
2019-03-11T19:37:15.484Z,1.90
2019-03-11T19:39:44.504Z,2.02
2019-03-11T19:42:13.546Z,2.05
2019-03-11T19:44:42.498Z,2.20
2019-03-11T19:47:11.299Z,2.20
2019-03-11T19:49:41.506Z,1.98
2019-03-11T19:52:10.351Z,2.10
2019-03-11T19:54:39.319Z,2.42
2019-03-11T19:57:09.051Z,2.00
2019-03-11T19:59:38.055Z,2.12
2019-03-11T20:02:07.049Z,2.20
2019-03-11T20:04:35.872Z,2.37
2019-03-11T20:07:04.939Z,2.22
2019-03-11T20:09:34.812Z,2.20
2019-03-11T20:12:03.837Z,2.27
2019-03-11T20:14:32.956Z,2.30
2019-03-11T20:17:01.809Z,2.50
2019-03-11T20:19:30.655Z,2.43
2019-03-11T20:21:59.551Z,2.42
2019-03-11T20:24:28.383Z,2.40
2019-03-11T20:26:57.269Z,2.42
2019-03-11T20:29:26.277Z,2.50
2019-03-11T20:31:56.038Z,2.50
2019-03-11T20:34:25.124Z,2.30
2019-03-11T20:36:53.902Z,2.50
2019-03-11T20:39:22.893Z,2.85
2019-03-11T20:41:51.858Z,2.70
2019-03-11T20:44:20.665Z,2.60
2019-03-11T20:46:49.631Z,2.40
2019-03-11T20:49:18.939Z,2.50
2019-03-11T20:51:47.913Z,2.40
2019-03-11T20:54:16.817Z,2.50
2019-03-11T20:56:45.624Z,2.60
2019-03-11T20:59:14.465Z,2.42
2019-03-11T21:01:43.534Z,2.50
2019-03-11T21:04:12.475Z,2.50
2019-03-11T21:06:41.292Z,2.52
2019-03-11T21:09:11.402Z,2.60
2019-03-11T21:11:40.234Z,2.60
2019-03-11T21:14:09.164Z,2.57
2019-03-11T21:16:37.993Z,2.60
2019-03-11T21:19:06.961Z,2.37
2019-03-11T21:21:35.960Z,2.70
2019-03-11T21:24:04.927Z,2.62
2019-03-11T21:26:34.152Z,2.45
2019-03-11T21:29:02.977Z,2.67
2019-03-11T21:31:32.237Z,2.80
2019-03-11T21:34:01.214Z,2.72
2019-03-11T21:36:30.207Z,2.35
2019-03-11T21:38:59.355Z,2.52
2019-03-11T21:41:28.224Z,2.50
2019-03-11T21:43:57.054Z,2.80
2019-03-11T21:46:26.004Z,2.60
2019-03-11T21:48:55.218Z,2.55
2019-03-11T21:51:24.191Z,2.77
2019-03-11T21:53:52.968Z,2.50
2019-03-11T21:56:22.200Z,2.62
2019-03-11T21:58:51.315Z,2.72
2019-03-11T22:01:20.323Z,2.47
2019-03-11T22:03:49.106Z,2.47
2019-03-11T22:06:18.081Z,2.83
2019-03-11T22:08:47.331Z,2.60
2019-03-11T22:11:16.178Z,2.50
2019-03-11T22:13:45.003Z,2.60
2019-03-11T22:16:13.843Z,2.52
2019-03-11T22:18:42.710Z,2.70
2019-03-11T22:21:11.550Z,2.47
2019-03-11T22:23:42.145Z,2.40
2019-03-11T22:26:11.163Z,2.58
2019-03-11T22:28:40.368Z,2.50
2019-03-11T22:31:09.183Z,2.27
2019-03-11T22:33:39.283Z,2.40
2019-03-11T22:36:08.087Z,2.40
2019-03-11T22:38:37.182Z,2.25
2019-03-11T22:41:06.082Z,2.30
2019-03-11T22:43:34.919Z,2.20
2019-03-11T22:46:04.020Z,2.80
2019-03-11T22:48:32.840Z,2.42
2019-03-11T22:51:01.638Z,2.22
2019-03-11T22:53:30.548Z,2.20
2019-03-11T22:55:59.410Z,2.17
2019-03-11T22:58:28.391Z,2.30
2019-03-11T23:01:00.443Z,2.23
2019-03-11T23:03:29.485Z,2.10
2019-03-11T23:05:58.783Z,2.10
2019-03-11T23:08:27.962Z,2.25
2019-03-11T23:10:56.930Z,2.20
2019-03-11T23:13:25.919Z,2.25
2019-03-11T23:15:54.942Z,2.58
2019-03-11T23:18:23.802Z,2.30
2019-03-11T23:20:52.670Z,2.40
2019-03-11T23:23:21.467Z,2.10
2019-03-11T23:25:50.232Z,2.10
2019-03-11T23:28:19.126Z,2.20
2019-03-11T23:30:47.964Z,2.30
2019-03-11T23:33:16.746Z,2.65
2019-03-11T23:35:45.756Z,2.20
2019-03-11T23:38:14.545Z,2.40
2019-03-11T23:40:43.467Z,2.40
2019-03-11T23:43:12.613Z,2.27
2019-03-11T23:45:41.374Z,2.40
2019-03-11T23:48:10.151Z,2.50
2019-03-11T23:50:39.020Z,2.70
2019-03-11T23:53:07.883Z,2.52
2019-03-11T23:55:36.742Z,2.62
2019-03-11T23:58:05.570Z,2.70
